Pittsburgh, PA (15237)

12:52 AM EDT on September 27, 2016 (GMT -0400)
Perrysville | | Change Station

Elev 1175 ft 40.54 °N, 80.04 °W | Updated 2 seconds ago

Mostly Cloudy
Mostly Cloudy
54.9 °F
Feels Like 54.9 °F
N
0.0
Wind Variable Wind from WSW
Gusts 0.0 mph

Today
High -- | Low -- °F
--% Chance of Precip.
Yesterday
High -- | Low -- °F
Precip. -- in
Pressure 30.01 in
Visibility 10.0 miles
Clouds Mostly Cloudy 25000 ft
Dew Point 52 °F
Humidity 91%
Rainfall 0.00 in
Snow Depth Not available.
7:13 AM 7:08 PM
Waning Crescent, 14% visible
METAR KPIT 270351Z 25004KT 10SM BKN250 14/13 A3001 RMK AO2 SLP163 T01390133
Pressure 30.01 in
Visibility 10.0 miles
Clouds Mostly Cloudy 25000 ft
Dew Point 52 °F
Humidity 91%
Rainfall 0.00 in
Snow Depth Not available.
7:13 AM 7:08 PM
Waning Crescent, 14% visible
METAR KPIT 270351Z 25004KT 10SM BKN250 14/13 A3001 RMK AO2 SLP163 T01390133

10-Day Weather Forecast

Almanac

Astronomy

Sep. 27, 2016 Rise Set
Actual Time
Civil Twilight
Nautical Twilight
Astronomical Twilight
Moon
Length of Visible Light
Length of Day
Tomorrow will be .
, % of the Moon is Illuminated

Today's Extremes

State Highs State Lows

Community

WunderPhotos

Upload Photos

1,942,035 photos uploaded!

WunderBlog® & News

Nearby

Air Quality

  Air Quality AQ Index Pollutant
Not available.

Snow Depth

Station Depth Elevation

Earthquake Activity

City Distance Mag. Time & Date
Minimum magnitude displayed is 2.5.

Coastal Water Temperatures

Place Temperature

Stations

Nearby Weather Stations

Station Location Temp. Windchill Dew Point Humidity Wind Precip. Elev Updated Type
                   

Watches & Warnings

There are currently no watches in effect.